Time;durP1;ratioP1;P1;durP2;ratioP2;P2;SDS_P1;SDS_P2;PMS_P1;PMS_P2;Temp;Humidity;BMP_temperature;BMP_pressure;BME280_temperature;BME280_humidity;BME280_pressure;Samples;Min_cycle;Max_cycle;Signal;HPM_P1;HPM_P2
2022/12/21 00:00:15;;;;;;;4.80;2.50;;;9.60;93.90;;;;;;6244566;23;20376;-75
2022/12/21 00:02:41;;;;;;;5.80;2.78;;;9.60;93.90;;;;;;6244562;23;20003;-74
2022/12/21 00:05:08;;;;;;;3.90;2.08;;;9.50;93.90;;;;;;6245129;23;20343;-74
2022/12/21 00:07:33;;;;;;;5.32;2.58;;;9.50;93.90;;;;;;6213222;23;20449;-74
2022/12/21 00:09:59;;;;;;;4.97;2.70;;;9.50;93.90;;;;;;6212654;23;20009;-75
2022/12/21 00:12:25;;;;;;;5.38;2.60;;;9.50;93.90;;;;;;6212763;23;20008;-74
2022/12/21 00:14:50;;;;;;;5.00;2.40;;;9.50;93.90;;;;;;6244384;23;20013;-74
2022/12/21 00:17:16;;;;;;;5.25;2.60;;;9.50;93.90;;;;;;6244616;23;20066;-74
2022/12/21 00:19:43;;;;;;;5.07;2.42;;;9.50;93.90;;;;;;6244984;23;20007;-74
2022/12/21 00:22:09;;;;;;;5.30;2.55;;;9.50;93.90;;;;;;6245039;23;20282;-74
2022/12/21 00:24:35;;;;;;;4.60;2.42;;;9.50;93.90;;;;;;6244969;23;20007;-74
2022/12/21 00:27:01;;;;;;;5.85;2.60;;;9.40;93.90;;;;;;6217425;23;20016;-74
2022/12/21 00:29:28;;;;;;;6.13;3.00;;;9.40;93.90;;;;;;6244536;23;20126;-74
2022/12/21 00:31:53;;;;;;;4.13;2.22;;;9.40;93.90;;;;;;6217584;23;20008;-75
2022/12/21 00:34:19;;;;;;;4.20;2.28;;;9.40;93.90;;;;;;6217030;23;20008;-74
2022/12/21 00:36:47;;;;;;;5.43;2.50;;;9.40;93.90;;;;;;6213664;23;20001;-74
2022/12/21 00:39:15;;;;;;;4.57;2.10;;;9.40;93.90;;;;;;6244586;23;20004;-74
2022/12/21 00:41:40;;;;;;;3.95;2.05;;;9.40;93.90;;;;;;6212373;23;20007;-74
2022/12/21 00:44:07;;;;;;;5.22;2.38;;;9.40;93.90;;;;;;6244625;23;20012;-74
2022/12/21 00:46:33;;;;;;;6.05;2.75;;;9.40;93.90;;;;;;6244746;23;20016;-74
2022/12/21 00:49:03;;;;;;;5.35;2.60;;;9.40;93.90;;;;;;6244080;23;20010;-74
2022/12/21 00:51:30;;;;;;;5.80;2.38;;;9.30;93.90;;;;;;6243938;23;20496;-74
2022/12/21 00:53:58;;;;;;;4.22;2.08;;;9.30;93.90;;;;;;6244664;23;20144;-74
2022/12/21 00:56:25;;;;;;;4.95;2.42;;;9.30;94.20;;;;;;6244680;23;20008;-74
2022/12/21 00:58:51;;;;;;;4.07;1.92;;;9.30;93.90;;;;;;6244465;23;20000;-74
2022/12/21 01:01:22;;;;;;;5.53;2.22;;;9.30;93.90;;;;;;6244044;23;20079;-74
2022/12/21 01:03:49;;;;;;;4.45;2.28;;;9.30;94.00;;;;;;6244484;23;20020;-75
2022/12/21 01:06:17;;;;;;;5.25;2.28;;;9.30;94.00;;;;;;6243951;23;20099;-74
2022/12/21 01:08:43;;;;;;;4.90;2.05;;;9.30;94.00;;;;;;6217753;23;20074;-74
2022/12/21 01:11:12;;;;;;;4.53;2.10;;;9.30;94.00;;;;;;6217375;23;20012;-75
2022/12/21 01:13:37;;;;;;;4.45;2.10;;;9.20;94.00;;;;;;6243719;23;20004;-75
2022/12/21 01:16:05;;;;;;;4.55;2.08;;;9.30;94.00;;;;;;6244562;23;20313;-75
2022/12/21 01:18:31;;;;;;;4.03;1.92;;;9.20;94.00;;;;;;6244600;23;19996;-75
2022/12/21 01:20:57;;;;;;;3.67;1.60;;;9.20;94.00;;;;;;6244034;23;20070;-74
2022/12/21 01:23:23;;;;;;;4.40;2.10;;;9.20;94.00;;;;;;6244511;23;19996;-74
2022/12/21 01:25:50;;;;;;;4.10;2.03;;;9.30;94.00;;;;;;6215916;23;20084;-74
2022/12/21 01:28:17;;;;;;;4.03;1.90;;;9.20;94.00;;;;;;6218108;23;20367;-74
2022/12/21 01:30:43;;;;;;;3.95;2.05;;;9.20;94.00;;;;;;6244025;23;20329;-74
2022/12/21 01:33:14;;;;;;;3.58;1.75;;;9.20;94.00;;;;;;6243872;23;19997;-74
2022/12/21 01:35:41;;;;;;;3.35;1.75;;;9.20;94.00;;;;;;6217042;23;20018;-74
2022/12/21 01:38:07;;;;;;;3.20;1.73;;;9.20;94.00;;;;;;6216122;23;20000;-74
2022/12/21 01:40:33;;;;;;;4.18;1.98;;;9.20;94.00;;;;;;6217095;23;20039;-74
2022/12/21 01:42:59;;;;;;;4.45;2.00;;;9.20;94.00;;;;;;6243803;23;20083;-74
2022/12/21 01:45:29;;;;;;;3.90;1.90;;;9.20;94.00;;;;;;6243894;23;20377;-74
2022/12/21 01:48:01;;;;;;;3.72;2.05;;;9.30;94.00;;;;;;6244300;23;20039;-74
2022/12/21 01:50:34;;;;;;;4.10;1.90;;;9.20;94.00;;;;;;6243719;23;20429;-74
2022/12/21 01:53:05;;;;;;;3.63;1.73;;;9.20;94.00;;;;;;6244008;23;20030;-74
2022/12/21 01:55:33;;;;;;;4.30;1.83;;;9.20;94.00;;;;;;6244347;23;20447;-74
2022/12/21 01:58:02;;;;;;;3.80;1.75;;;9.10;94.00;;;;;;6243657;23;20020;-74
2022/12/21 02:00:27;;;;;;;5.07;2.20;;;9.10;94.00;;;;;;6243734;23;20004;-74
2022/12/21 02:02:58;;;;;;;5.40;2.35;;;9.10;94.00;;;;;;6244286;23;19996;-74
2022/12/21 02:05:33;;;;;;;5.57;2.00;;;9.10;94.00;;;;;;6216979;23;20000;-74
2022/12/21 02:08:01;;;;;;;4.13;1.80;;;9.10;94.00;;;;;;6243565;23;20278;-74
2022/12/21 02:10:27;;;;;;;3.65;1.67;;;9.10;94.00;;;;;;6243677;23;20008;-74
2022/12/21 02:13:00;;;;;;;3.53;1.90;;;9.10;94.00;;;;;;6216889;23;20010;-74
2022/12/21 02:15:44;;;;;;;3.88;1.90;;;9.10;94.00;;;;;;6243619;23;20020;-74
2022/12/21 02:18:23;;;;;;;4.00;1.80;;;9.00;94.00;;;;;;6244223;23;19996;-74
2022/12/21 02:21:19;;;;;;;4.18;1.85;;;9.00;94.00;;;;;;6244436;23;20068;-74
2022/12/21 02:24:19;;;;;;;4.70;2.13;;;9.00;94.00;;;;;;6243614;23;20075;-74
2022/12/21 02:27:09;;;;;;;4.38;1.95;;;9.00;94.00;;;;;;6243194;23;20000;-74
2022/12/21 02:30:00;;;;;;;4.10;1.73;;;9.00;94.00;;;;;;6216670;23;20000;-74
2022/12/21 02:32:40;;;;;;;3.97;1.73;;;9.00;94.00;;;;;;6243923;23;20000;-74
2022/12/21 02:35:40;;;;;;;3.30;1.63;;;8.90;94.00;;;;;;6243613;23;20004;-74
2022/12/21 02:38:18;;;;;;;4.18;1.70;;;8.90;94.00;;;;;;6243451;23;20046;-74
2022/12/21 02:41:12;;;;;;;3.70;1.65;;;8.90;94.00;;;;;;6211773;23;20008;-74
2022/12/21 02:46:32;;;;;;;4.03;2.00;;;8.90;94.00;;;;;;6243466;23;20016;-75
2022/12/21 02:49:05;;;;;;;4.57;1.85;;;8.80;94.00;;;;;;6243818;23;20035;-75
2022/12/21 02:51:44;;;;;;;5.05;2.40;;;9.00;94.10;;;;;;6243196;23;20020;-74
2022/12/21 02:54:10;;;;;;;3.63;1.67;;;8.80;94.00;;;;;;6240164;23;20383;-75
2022/12/21 02:56:36;;;;;;;5.22;2.30;;;8.90;94.00;;;;;;6216590;23;20000;-74
2022/12/21 02:59:03;;;;;;;4.53;2.13;;;8.90;94.00;;;;;;6243645;23;20436;-75
2022/12/21 03:01:59;;;;;;;4.10;1.80;;;8.80;94.00;;;;;;6243755;23;20007;-74
2022/12/21 03:05:12;;;;;;;4.35;1.80;;;8.90;94.00;;;;;;6240162;23;20333;-75
2022/12/21 03:07:50;;;;;;;4.72;2.25;;;8.80;94.00;;;;;;6243432;23;20000;-74
2022/12/21 03:10:35;;;;;;;4.38;2.03;;;8.80;93.90;;;;;;6217877;23;20514;-74
2022/12/21 03:13:32;;;;;;;4.28;2.05;;;8.80;94.00;;;;;;6243659;23;20007;-74
2022/12/21 03:16:18;;;;;;;3.28;1.83;;;8.80;94.00;;;;;;6243326;23;20039;-74
2022/12/21 03:19:22;;;;;;;3.38;1.75;;;8.90;94.00;;;;;;6241737;23;19996;-74
2022/12/21 03:21:55;;;;;;;4.55;1.55;;;8.80;94.00;;;;;;6244065;23;20372;-74
2022/12/21 03:24:28;;;;;;;4.32;1.70;;;8.80;94.00;;;;;;6244602;23;20032;-74
2022/12/21 03:26:57;;;;;;;3.63;1.63;;;8.80;94.00;;;;;;6244353;23;20127;-74
2022/12/21 03:29:28;;;;;;;4.15;1.80;;;8.70;94.00;;;;;;6244692;23;20324;-74
2022/12/21 03:31:59;;;;;;;2.92;1.50;;;8.80;94.00;;;;;;6213698;23;20380;-74
2022/12/21 03:34:26;;;;;;;;;;;8.70;94.00;;;;;;6245224;23;20032;-74
2022/12/21 03:37:01;;;;;;;2.55;1.33;;;8.70;94.00;;;;;;6244169;23;19900;-75
2022/12/21 03:39:29;;;;;;;2.55;1.45;;;8.70;94.00;;;;;;6215017;23;20012;-75
2022/12/21 03:42:01;;;;;;;3.47;1.50;;;8.80;94.00;;;;;;6244945;23;20078;-75
2022/12/21 03:44:34;;;;;;;3.92;1.83;;;8.70;94.00;;;;;;6215018;23;20015;-74
2022/12/21 03:47:05;;;;;;;3.92;1.48;;;8.70;94.00;;;;;;6217422;23;20011;-74
2022/12/21 03:49:44;;;;;;;4.20;1.63;;;8.70;94.00;;;;;;6212816;23;20313;-74
2022/12/21 03:52:14;;;;;;;5.93;2.10;;;8.70;94.00;;;;;;6241095;23;20018;-75
2022/12/21 03:55:02;;;;;;;4.53;2.10;;;8.70;94.00;;;;;;6244257;23;20027;-74
2022/12/21 03:57:28;;;;;;;3.10;1.45;;;8.70;94.00;;;;;;6241529;23;20004;-75
2022/12/21 03:59:58;;;;;;;4.50;1.90;;;8.70;94.00;;;;;;6218252;23;19996;-74
2022/12/21 04:02:37;;;;;;;5.38;2.03;;;8.70;94.00;;;;;;6244853;23;19996;-75
2022/12/21 04:05:14;;;;;;;5.15;2.10;;;8.70;94.00;;;;;;6217437;23;20004;-75
2022/12/21 04:07:42;;;;;;;3.65;1.85;;;8.70;94.00;;;;;;6244448;23;20000;-75
2022/12/21 04:10:11;;;;;;;4.35;1.92;;;8.70;94.00;;;;;;6216683;23;20008;-74
2022/12/21 04:12:37;;;;;;;3.53;1.67;;;8.70;94.00;;;;;;6192856;23;20372;-75
2022/12/21 04:15:14;;;;;;;3.15;1.42;;;8.70;94.00;;;;;;6217373;23;20058;-75
2022/12/21 04:17:41;;;;;;;3.33;1.45;;;8.70;94.00;;;;;;6214138;23;20015;-75
2022/12/21 04:20:10;;;;;;;3.90;1.63;;;8.70;94.00;;;;;;6244169;23;20023;-74
2022/12/21 04:28:09;;;;;;;3.65;1.55;;;8.70;94.00;;;;;;6244299;23;20437;-75
2022/12/21 04:30:39;;;;;;;3.47;1.75;;;8.50;93.90;;;;;;6244218;23;20008;-75
2022/12/21 04:33:07;;;;;;;3.88;1.65;;;8.60;94.00;;;;;;6243735;23;20008;-75
2022/12/21 04:35:33;;;;;;;3.85;1.80;;;8.60;94.00;;;;;;6244133;23;20012;-75
2022/12/21 04:37:59;;;;;;;4.80;1.75;;;8.60;94.00;;;;;;6217776;23;20019;-75
2022/12/21 04:40:25;;;;;;;3.83;1.60;;;8.50;94.00;;;;;;6243966;23;20009;-75
2022/12/21 04:42:50;;;;;;;2.78;1.50;;;8.60;94.00;;;;;;6217314;23;20342;-75
2022/12/21 04:45:16;;;;;;;2.38;1.30;;;8.60;94.00;;;;;;6217365;23;20001;-75
2022/12/21 04:47:42;;;;;;;4.25;1.80;;;8.60;94.00;;;;;;6244301;23;20095;-75
2022/12/21 04:50:08;;;;;;;3.80;1.92;;;8.60;94.00;;;;;;6244011;23;20005;-75
2022/12/21 04:52:34;;;;;;;5.40;2.30;;;8.60;94.00;;;;;;6244316;23;20004;-75
2022/12/21 04:55:00;;;;;;;4.35;1.95;;;8.60;94.00;;;;;;6244051;23;20028;-74
2022/12/21 04:57:26;;;;;;;4.47;2.10;;;8.60;94.00;;;;;;6243870;23;20653;-74
2022/12/21 04:59:51;;;;;;;3.83;1.90;;;8.50;94.00;;;;;;6217927;23;20001;-74
2022/12/21 05:02:17;;;;;;;4.20;1.80;;;8.60;94.00;;;;;;6244289;23;20421;-75
2022/12/21 05:04:42;;;;;;;5.40;2.42;;;8.60;94.00;;;;;;6244631;23;20058;-75
2022/12/21 05:07:08;;;;;;;3.83;1.90;;;8.60;94.00;;;;;;6244146;23;20004;-75
2022/12/21 05:09:34;;;;;;;4.40;2.10;;;8.70;94.00;;;;;;6244195;23;20078;-75
2022/12/21 05:11:59;;;;;;;5.35;2.10;;;8.60;94.00;;;;;;6217939;23;20081;-74
2022/12/21 05:14:25;;;;;;;4.35;2.38;;;8.60;93.90;;;;;;6243936;23;20012;-75
2022/12/21 05:16:51;;;;;;;6.95;3.17;;;8.60;94.00;;;;;;6244068;23;20004;-74
2022/12/21 05:19:18;;;;;;;5.88;2.38;;;8.60;94.00;;;;;;6244629;23;20473;-74
2022/12/21 05:21:43;;;;;;;6.55;2.67;;;8.60;94.00;;;;;;6244065;23;20015;-74
2022/12/21 05:24:09;;;;;;;6.07;2.45;;;8.60;93.90;;;;;;6243959;23;20020;-75
2022/12/21 05:26:35;;;;;;;5.50;2.70;;;8.60;94.20;;;;;;6217817;23;20012;-75
2022/12/21 05:29:01;;;;;;;6.30;2.83;;;8.60;93.90;;;;;;6244440;23;20015;-75
2022/12/21 05:31:26;;;;;;;6.30;2.78;;;8.60;93.90;;;;;;6217102;23;20054;-74
2022/12/21 05:33:52;;;;;;;6.88;3.08;;;8.60;93.90;;;;;;6244722;23;20012;-74
2022/12/21 05:36:18;;;;;;;8.35;3.17;;;8.60;93.90;;;;;;6218014;23;20417;-75
2022/12/21 05:38:44;;;;;;;6.50;2.83;;;8.60;93.90;;;;;;6217391;23;20004;-74
2022/12/21 05:41:12;;;;;;;8.52;2.92;;;8.60;93.90;;;;;;6244835;23;20075;-75
2022/12/21 05:43:38;;;;;;;8.68;3.03;;;8.60;93.90;;;;;;6218220;23;20007;-74
2022/12/21 05:46:06;;;;;;;5.00;2.50;;;8.60;93.90;;;;;;6217028;23;20058;-74
2022/12/21 05:48:32;;;;;;;5.47;2.33;;;8.60;93.90;;;;;;6243851;23;20329;-74
2022/12/21 05:50:58;;;;;;;5.20;2.58;;;8.70;94.00;;;;;;6243948;23;19996;-75
2022/12/21 05:53:24;;;;;;;5.85;2.65;;;8.60;94.00;;;;;;6217574;23;20004;-74
2022/12/21 05:55:51;;;;;;;7.55;2.97;;;8.60;94.00;;;;;;6244671;23;20004;-75
2022/12/21 05:58:18;;;;;;;7.88;3.13;;;8.60;94.00;;;;;;6217739;23;20008;-75
2022/12/21 06:00:44;;;;;;;7.70;3.35;;;8.60;94.00;;;;;;6244253;23;19996;-75
2022/12/21 06:03:10;;;;;;;6.97;3.42;;;8.50;93.90;;;;;;6211249;23;20001;-75
2022/12/21 06:05:36;;;;;;;6.28;2.85;;;8.60;93.90;;;;;;6162211;23;20005;-74
2022/12/21 06:08:03;;;;;;;6.43;2.90;;;8.60;93.90;;;;;;6187048;23;20428;-74
2022/12/21 06:10:29;;;;;;;6.22;2.88;;;8.60;93.90;;;;;;6211366;23;20115;-74
2022/12/21 06:12:54;;;;;;;6.43;3.22;;;8.50;94.00;;;;;;6213489;23;20000;-75
2022/12/21 06:15:20;;;;;;;5.30;2.50;;;8.50;94.00;;;;;;6186751;23;20020;-74
2022/12/21 06:17:46;;;;;;;5.70;2.65;;;8.50;94.00;;;;;;6214152;23;20425;-75
2022/12/21 06:20:12;;;;;;;6.18;2.67;;;8.50;94.00;;;;;;6187186;23;20429;-74
2022/12/21 06:22:40;;;;;;;5.40;2.63;;;8.50;94.00;;;;;;6214055;23;20078;-74
2022/12/21 06:25:07;;;;;;;5.13;2.53;;;8.50;94.00;;;;;;6213362;23;20781;-74
2022/12/21 06:27:32;;;;;;;6.03;2.55;;;8.40;94.00;;;;;;6213652;23;20011;-74
2022/12/21 06:29:58;;;;;;;5.18;2.30;;;8.40;94.00;;;;;;6213741;23;20402;-74
2022/12/21 06:32:23;;;;;;;4.85;2.30;;;8.40;94.00;;;;;;6213700;23;20007;-74
2022/12/21 06:34:49;;;;;;;4.82;2.08;;;8.40;94.10;;;;;;6213644;23;20016;-74
2022/12/21 06:37:15;;;;;;;4.53;2.15;;;8.30;94.10;;;;;;6187100;23;19997;-74
2022/12/21 06:39:40;;;;;;;4.82;1.88;;;8.30;94.10;;;;;;6213646;23;20088;-74
2022/12/21 06:42:06;;;;;;;4.78;2.03;;;8.30;94.10;;;;;;6213260;23;20084;-74
2022/12/21 06:44:32;;;;;;;3.95;1.90;;;8.30;94.20;;;;;;6214120;23;20080;-74
2022/12/21 06:46:58;;;;;;;3.72;1.70;;;8.20;94.10;;;;;;6213934;23;20004;-74
2022/12/21 06:49:23;;;;;;;3.95;1.90;;;8.20;94.10;;;;;;6213192;23;20088;-74
2022/12/21 06:51:49;;;;;;;5.72;2.42;;;8.20;94.20;;;;;;6213199;23;20000;-74
2022/12/21 06:54:14;;;;;;;5.38;2.30;;;8.20;94.20;;;;;;6186568;23;20512;-74
2022/12/21 06:56:40;;;;;;;3.70;1.80;;;8.20;94.20;;;;;;6213210;23;20054;-74
2022/12/21 06:59:06;;;;;;;3.83;1.83;;;8.10;94.20;;;;;;6187375;23;20005;-74
2022/12/21 07:01:34;;;;;;;3.70;1.83;;;8.20;94.20;;;;;;6213979;23;19997;-74
2022/12/21 07:04:00;;;;;;;4.57;2.20;;;8.20;94.20;;;;;;6210345;23;20001;-74
2022/12/21 07:06:28;;;;;;;5.90;2.65;;;8.10;94.10;;;;;;6213668;23;20019;-74
2022/12/21 07:08:55;;;;;;;5.35;2.28;;;8.10;94.20;;;;;;6161610;23;20120;-74
2022/12/21 07:11:24;;;;;;;6.22;2.50;;;8.20;94.20;;;;;;6214033;23;20079;-74
2022/12/21 07:13:52;;;;;;;5.13;2.58;;;8.10;94.20;;;;;;6213725;23;20016;-75
2022/12/21 07:16:19;;;;;;;5.03;2.30;;;8.10;94.20;;;;;;6213031;23;20054;-74
2022/12/21 07:18:46;;;;;;;5.03;2.22;;;8.10;94.20;;;;;;6212977;23;20090;-75
2022/12/21 07:21:15;;;;;;;5.55;2.40;;;8.10;94.20;;;;;;6213578;23;20009;-74
2022/12/21 07:23:41;;;;;;;4.78;2.45;;;8.10;94.10;;;;;;6212996;23;20388;-74
2022/12/21 07:26:10;;;;;;;6.78;2.60;;;8.10;94.10;;;;;;6184470;23;20005;-74
2022/12/21 07:28:36;;;;;;;5.45;2.35;;;8.10;94.10;;;;;;6213038;23;20100;-74
2022/12/21 07:31:07;;;;;;;4.07;1.90;;;8.10;94.10;;;;;;6243111;23;20433;-74
2022/12/21 07:33:34;;;;;;;4.20;1.90;;;8.10;94.10;;;;;;6191481;23;20328;-74
2022/12/21 07:36:01;;;;;;;4.05;2.03;;;8.00;94.10;;;;;;6243989;23;19996;-74
2022/12/21 07:38:28;;;;;;;3.92;1.73;;;8.00;94.10;;;;;;6243197;23;20349;-75
2022/12/21 07:40:56;;;;;;;4.18;1.65;;;7.90;94.10;;;;;;6243298;23;19996;-74
2022/12/21 07:43:22;;;;;;;3.28;1.55;;;8.00;94.20;;;;;;6243561;23;20010;-74
2022/12/21 07:45:48;;;;;;;4.30;1.85;;;7.90;94.20;;;;;;6243886;23;20078;-74
2022/12/21 07:48:13;;;;;;;5.18;2.33;;;7.90;94.20;;;;;;6243173;23;20490;-74
2022/12/21 07:50:39;;;;;;;4.63;2.30;;;7.90;94.20;;;;;;6243665;23;20080;-74
2022/12/21 07:53:04;;;;;;;4.22;2.00;;;7.90;94.20;;;;;;6243563;23;20333;-74
2022/12/21 07:55:31;;;;;;;4.10;1.95;;;8.00;94.20;;;;;;6243035;23;20091;-73
2022/12/21 07:57:57;;;;;;;4.55;2.10;;;7.90;94.20;;;;;;6243532;23;20004;-74
2022/12/21 08:00:23;;;;;;;4.78;2.22;;;8.00;94.20;;;;;;6243590;23;20011;-73
2022/12/21 08:02:50;;;;;;;5.65;2.45;;;7.90;94.20;;;;;;6243179;23;20016;-74
2022/12/21 08:05:18;;;;;;;5.93;2.65;;;7.90;94.20;;;;;;6166839;23;20008;-74
2022/12/21 08:07:44;;;;;;;6.43;2.72;;;8.00;94.20;;;;;;6243526;23;20377;-74
2022/12/21 08:10:09;;;;;;;6.45;2.70;;;7.90;94.20;;;;;;6244577;23;20008;-74
2022/12/21 08:12:35;;;;;;;6.28;2.92;;;8.00;94.20;;;;;;6244930;23;20019;-74
2022/12/21 08:15:01;;;;;;;7.13;3.13;;;7.90;94.20;;;;;;6245375;23;20016;-75
2022/12/21 08:17:26;;;;;;;6.03;2.97;;;8.00;94.10;;;;;;6245515;23;20000;-75
2022/12/21 08:20:12;;;;;;;6.28;3.03;;;8.00;94.10;;;;;;6219135;23;20004;-75
2022/12/21 08:22:38;;;;;;;7.70;3.10;;;7.90;94.00;;;;;;6244714;23;20004;-76
2022/12/21 08:25:03;;;;;;;5.78;2.83;;;8.00;94.10;;;;;;6217534;23;20451;-76
2022/12/21 08:27:29;;;;;;;6.78;3.10;;;8.10;94.10;;;;;;6168470;23;20000;-76
2022/12/21 08:30:05;;;;;;;6.75;3.10;;;7.90;94.00;;;;;;6247299;23;20405;-78
2022/12/21 08:32:30;;;;;;;5.18;2.60;;;8.00;94.00;;;;;;6224863;23;20012;-77
2022/12/21 08:34:59;;;;;;;5.50;2.85;;;8.00;94.00;;;;;;6187742;23;20017;-77
2022/12/21 08:37:26;;;;;;;6.57;3.00;;;8.00;94.00;;;;;;6249613;23;19997;-78
2022/12/21 08:39:52;;;;;;;6.35;2.63;;;8.00;94.00;;;;;;6197949;23;20012;-77
2022/12/21 08:42:18;;;;;;;6.47;2.85;;;8.00;94.00;;;;;;6230782;23;20027;-77
2022/12/21 08:44:43;;;;;;;5.18;2.47;;;8.00;94.00;;;;;;6270426;23;20000;-77
2022/12/21 08:47:09;;;;;;;5.40;2.33;;;8.00;94.00;;;;;;6241030;23;19997;-78
2022/12/21 08:49:34;;;;;;;5.78;2.70;;;8.00;94.00;;;;;;6244149;22;20026;-77
2022/12/21 08:52:00;;;;;;;5.38;2.50;;;8.00;94.10;;;;;;6272056;23;20044;-77
2022/12/21 08:54:26;;;;;;;6.32;2.65;;;7.90;94.00;;;;;;6272141;22;20007;-78
2022/12/21 08:56:52;;;;;;;5.40;2.72;;;7.90;94.10;;;;;;6272316;22;20012;-77
2022/12/21 08:59:18;;;;;;;4.40;2.33;;;7.90;94.10;;;;;;6271910;22;20003;-77
2022/12/21 09:01:43;;;;;;;3.92;2.15;;;8.00;94.10;;;;;;6265968;22;20068;-79
2022/12/21 09:04:09;;;;;;;5.75;2.88;;;8.00;94.10;;;;;;6271286;22;20020;-78
2022/12/21 09:06:35;;;;;;;4.70;2.45;;;8.00;94.00;;;;;;6267970;22;20000;-77
2022/12/21 09:09:00;;;;;;;4.88;2.13;;;8.10;94.00;;;;;;6241184;23;20031;-77
2022/12/21 09:11:27;;;;;;;5.53;2.67;;;8.10;94.00;;;;;;6241088;22;19999;-78
2022/12/21 09:13:53;;;;;;;5.10;2.63;;;8.20;94.00;;;;;;6216096;23;20024;-77
2022/12/21 09:16:22;;;;;;;5.20;2.72;;;8.20;93.90;;;;;;6206517;23;20036;-77
2022/12/21 09:18:49;;;;;;;4.80;2.35;;;8.30;93.90;;;;;;6204250;23;20031;-77
2022/12/21 09:21:16;;;;;;;4.47;2.22;;;8.30;93.80;;;;;;6205555;23;20013;-77
2022/12/21 09:23:42;;;;;;;5.03;2.60;;;8.30;93.80;;;;;;6196046;23;20013;-77
2022/12/21 09:26:08;;;;;;;5.50;2.35;;;8.30;93.70;;;;;;6205098;23;20073;-77
2022/12/21 09:28:34;;;;;;;4.10;2.00;;;8.40;93.80;;;;;;6184608;23;20015;-74
2022/12/21 09:31:14;;;;;;;4.47;2.30;;;8.40;93.70;;;;;;6181573;23;20052;-74
2022/12/21 09:33:41;;;;;;;5.05;2.42;;;8.40;93.80;;;;;;6180984;23;20388;-74
2022/12/21 09:36:08;;;;;;;4.72;2.28;;;8.40;93.70;;;;;;6181359;23;20001;-75
2022/12/21 09:38:34;;;;;;;4.05;2.38;;;8.40;93.70;;;;;;6181195;23;20013;-75
2022/12/21 09:41:15;;;;;;;4.80;2.78;;;8.40;93.80;;;;;;6188034;23;20020;-75
2022/12/21 09:44:03;;;;;;;4.07;2.40;;;8.40;93.80;;;;;;6164188;23;20008;-74
2022/12/21 09:46:29;;;;;;;4.68;2.35;;;8.40;93.80;;;;;;6251669;23;20012;-75
2022/12/21 09:49:00;;;;;;;5.60;2.70;;;8.40;93.70;;;;;;6225251;23;20047;-76
2022/12/21 09:51:28;;;;;;;4.78;2.28;;;8.40;93.70;;;;;;6249600;23;19996;-74
2022/12/21 09:54:04;;;;;;;3.83;2.20;;;8.40;94.00;;;;;;6260755;23;20083;-75
2022/12/21 09:56:30;;;;;;;4.35;1.95;;;8.50;93.80;;;;;;6255577;23;20015;-76
2022/12/21 09:58:59;;;;;;;4.30;2.30;;;8.50;93.80;;;;;;6220112;23;20008;-76
2022/12/21 10:01:42;;;;;;;3.00;1.92;;;8.40;93.70;;;;;;6217452;23;19996;-75
2022/12/21 10:04:37;;;;;;;5.05;2.15;;;8.50;93.80;;;;;;6226624;23;20004;-75
2022/12/21 10:07:27;;;;;;;3.47;1.75;;;8.50;93.80;;;;;;6220775;23;20000;-75
2022/12/21 10:10:30;;;;;;;3.28;2.00;;;8.50;93.70;;;;;;6212503;23;20031;-75
2022/12/21 10:13:11;;;;;;;4.03;2.13;;;8.50;93.70;;;;;;6244712;23;20456;-76
2022/12/21 10:16:12;;;;;;;7.60;2.53;;;8.60;93.70;;;;;;6244108;23;20012;-76
2022/12/21 10:19:04;;;;;;;5.53;2.63;;;8.50;93.70;;;;;;6244330;23;20324;-76
2022/12/21 10:21:49;;;;;;;4.75;2.40;;;8.50;93.70;;;;;;6243863;23;20020;-75
2022/12/21 10:24:24;;;;;;;5.25;2.42;;;8.50;93.70;;;;;;6244244;23;20028;-75
2022/12/21 10:26:58;;;;;;;5.68;2.47;;;8.50;93.70;;;;;;6244452;23;20007;-75
2022/12/21 10:29:33;;;;;;;5.63;2.60;;;8.50;93.70;;;;;;6244112;23;20004;-75
2022/12/21 10:32:00;;;;;;;6.57;2.33;;;8.50;93.70;;;;;;6217181;23;20062;-77
2022/12/21 10:34:33;;;;;;;4.55;1.90;;;8.50;93.70;;;;;;6194274;23;20039;-77
2022/12/21 10:37:02;;;;;;;6.45;2.25;;;8.50;93.70;;;;;;6256344;23;20019;-76
2022/12/21 10:39:30;;;;;;;4.63;2.28;;;8.50;93.70;;;;;;6246829;23;20379;-76
2022/12/21 10:42:07;;;;;;;4.72;2.35;;;8.50;93.70;;;;;;6244400;23;20000;-75
2022/12/21 10:44:39;;;;;;;5.65;2.78;;;8.40;93.70;;;;;;6243853;23;20420;-75
2022/12/21 10:47:15;;;;;;;4.97;2.45;;;8.40;93.70;;;;;;6218273;23;20016;-75
2022/12/21 10:49:48;;;;;;;5.57;2.70;;;8.40;93.70;;;;;;6243915;23;20046;-75
2022/12/21 10:52:32;;;;;;;7.72;3.30;;;8.40;93.70;;;;;;6244017;23;20079;-75
2022/12/21 10:54:58;;;;;;;5.22;2.70;;;8.50;93.70;;;;;;6243633;23;20008;-76
2022/12/21 10:57:26;;;;;;;5.80;3.17;;;8.40;93.70;;;;;;6243795;23;20071;-76
2022/12/21 10:59:51;;;;;;;4.90;2.45;;;8.50;93.70;;;;;;6217241;23;20000;-76
2022/12/21 11:02:39;;;;;;;5.05;2.80;;;8.50;93.70;;;;;;6244756;23;20294;-75
2022/12/21 11:05:30;;;;;;;6.20;3.42;;;8.60;93.70;;;;;;6218096;23;20332;-75
2022/12/21 11:08:19;;;;;;;6.15;3.42;;;8.60;93.70;;;;;;6244114;23;20011;-76
2022/12/21 11:10:48;;;;;;;6.32;2.85;;;8.60;93.70;;;;;;6251728;23;20027;-75
2022/12/21 11:13:15;;;;;;;6.70;3.38;;;8.70;93.70;;;;;;6248604;23;20004;-75
2022/12/21 11:16:04;;;;;;;7.13;3.65;;;8.60;93.60;;;;;;6200919;23;20098;-75
2022/12/21 11:18:47;;;;;;;7.53;3.83;;;8.60;93.70;;;;;;6224535;23;20050;-75
2022/12/21 11:21:33;;;;;;;7.88;4.18;;;8.60;93.70;;;;;;6251777;23;20001;-75
2022/12/21 11:24:05;;;;;;;7.85;4.05;;;8.60;93.70;;;;;;6226031;23;20061;-74
2022/12/21 11:26:38;;;;;;;8.15;4.07;;;8.70;93.70;;;;;;6227650;23;20008;-75
2022/12/21 11:29:18;;;;;;;7.57;3.92;;;8.70;93.60;;;;;;6222518;23;20019;-75
2022/12/21 11:31:44;;;;;;;8.63;4.47;;;8.80;93.60;;;;;;6224546;23;20087;-74
2022/12/21 11:34:36;;;;;;;9.95;4.50;;;8.90;93.50;;;;;;6250128;23;20012;-75
2022/12/21 11:37:20;;;;;;;7.13;4.32;;;8.90;93.50;;;;;;6225836;23;20024;-74
2022/12/21 11:39:45;;;;;;;6.80;3.85;;;8.90;93.50;;;;;;6251449;23;20000;-74
2022/12/21 11:42:27;;;;;;;7.93;4.38;;;9.00;93.50;;;;;;6225654;23;20390;-75
2022/12/21 11:45:17;;;;;;;7.05;3.80;;;9.10;93.40;;;;;;6227415;23;20039;-75
2022/12/21 11:47:57;;;;;;;7.27;3.83;;;9.20;93.40;;;;;;6250115;23;20031;-75
2022/12/21 11:50:54;;;;;;;7.90;4.10;;;9.20;93.40;;;;;;6264400;23;20008;-75
2022/12/21 11:53:36;;;;;;;7.05;3.30;;;9.20;93.30;;;;;;6265386;23;20000;-75
2022/12/21 11:56:17;;;;;;;6.80;3.30;;;9.30;93.30;;;;;;6265916;23;20462;-75
2022/12/21 11:59:14;;;;;;;6.18;3.45;;;9.30;93.20;;;;;;6264837;23;20076;-75
2022/12/21 12:02:01;;;;;;;6.65;3.58;;;9.30;93.30;;;;;;6266335;23;20011;-76
2022/12/21 12:04:54;;;;;;;7.75;3.88;;;9.30;93.20;;;;;;6263304;23;20024;-75
2022/12/21 12:07:46;;;;;;;6.05;3.40;;;9.30;93.20;;;;;;6236725;23;20024;-75
2022/12/21 12:10:51;;;;;;;5.15;2.78;;;9.30;93.30;;;;;;6264062;23;20000;-75
2022/12/21 12:13:36;;;;;;;6.07;2.72;;;9.30;93.30;;;;;;6262598;23;20024;-75
2022/12/21 12:16:41;;;;;;;5.35;2.75;;;9.40;93.20;;;;;;6259813;23;20009;-75
2022/12/21 12:19:28;;;;;;;6.03;3.10;;;9.40;93.20;;;;;;6238893;23;20008;-75
2022/12/21 12:22:11;;;;;;;5.10;2.75;;;9.40;93.20;;;;;;6262677;23;20011;-75
2022/12/21 12:25:05;;;;;;;6.40;2.80;;;9.40;93.20;;;;;;6260705;23;20027;-75
2022/12/21 12:27:52;;;;;;;5.32;3.03;;;9.40;93.20;;;;;;6259369;23;20061;-74
2022/12/21 12:30:22;;;;;;;5.88;2.83;;;9.30;93.20;;;;;;6256035;23;20000;-74
2022/12/21 12:33:22;;;;;;;7.18;3.03;;;9.30;93.20;;;;;;6229235;23;20018;-75
2022/12/21 12:36:07;;;;;;;6.78;3.05;;;9.30;93.50;;;;;;6248803;23;20020;-75
2022/12/21 12:38:54;;;;;;;6.97;2.88;;;9.20;93.20;;;;;;6245290;23;20010;-75
2022/12/21 12:41:47;;;;;;;6.30;2.60;;;9.30;93.20;;;;;;6245926;23;20039;-75
2022/12/21 12:44:43;;;;;;;5.82;3.08;;;9.30;93.20;;;;;;6246239;23;20004;-76
2022/12/21 12:47:28;;;;;;;4.88;2.80;;;9.20;93.20;;;;;;6245632;23;19996;-76
2022/12/21 12:50:22;;;;;;;5.25;2.60;;;9.30;93.30;;;;;;6246631;23;20054;-76
2022/12/21 12:53:13;;;;;;;5.35;3.17;;;9.20;93.20;;;;;;6223156;23;20023;-76
2022/12/21 12:56:03;;;;;;;5.50;2.60;;;9.30;93.20;;;;;;6219260;23;20020;-76
2022/12/21 12:59:03;;;;;;;5.13;3.05;;;9.20;93.20;;;;;;6247020;23;20035;-76
2022/12/21 13:01:44;;;;;;;4.85;2.55;;;9.30;93.20;;;;;;6244639;23;20340;-76
2022/12/21 13:04:34;;;;;;;5.10;2.35;;;9.20;93.20;;;;;;6245255;23;20357;-76
2022/12/21 13:07:27;;;;;;;5.43;2.92;;;9.30;93.20;;;;;;6245023;23;21462;-76
2022/12/21 13:10:12;;;;;;;4.97;2.90;;;9.20;93.20;;;;;;6251789;23;20008;-75
2022/12/21 13:13:03;;;;;;;6.43;2.80;;;9.20;93.20;;;;;;6258633;23;20012;-75
2022/12/21 13:15:49;;;;;;;5.45;2.85;;;9.20;93.50;;;;;;6237315;23;20047;-75
2022/12/21 13:18:19;;;;;;;5.82;2.60;;;9.10;93.30;;;;;;6257019;23;20008;-75
2022/12/21 13:20:48;;;;;;;5.10;2.70;;;9.10;93.30;;;;;;6205276;23;20000;-75
2022/12/21 13:23:26;;;;;;;4.90;2.70;;;9.00;93.20;;;;;;6257625;23;20000;-75
2022/12/21 13:26:02;;;;;;;5.95;3.42;;;9.20;93.30;;;;;;6257112;23;20084;-75
2022/12/21 13:28:36;;;;;;;5.55;2.70;;;9.10;93.30;;;;;;6256350;23;20004;-75
2022/12/21 13:31:06;;;;;;;4.75;2.60;;;9.10;93.30;;;;;;6254971;23;20039;-75
2022/12/21 13:33:37;;;;;;;4.53;2.67;;;9.30;93.30;;;;;;6257033;23;20004;-75